Bedford Village, New York
Current Conditions -  °F | °C
As of 2:56 AM on Saturday 01 Nov 2014 (Local Time) from KHPN Reporting Station
Overcast Overcast  
Wind Chill: 41°   Ceiling: 3400
Heat Index: 45°   Visibility: 10mi
Dew Point: 39°   Wind: 8mph
Humidity: 80%   Direction: 10°N
Pressure: 29.85"   Gusts: NA
Location:  41.191°N, 73.6333°W
Report Text: KHPN 010656Z 01007KT 10SM OVC034 07/04 A2985 RMK AO2 SLP110 T00720039
Loading
Personal Weather Stations






























Interactive Weather Map
Tropical Storm Tracking
New forecast layout! Learn more

10-Day Weather Forecast

Advertisements
Track Severe Weather on mobile